createdAt,value
2017-11-30T00:01:21.119Z,20.50
2017-11-30T00:03:49.487Z,26.03
2017-11-30T00:06:17.523Z,20.63
2017-11-30T00:08:45.910Z,21.33
2017-11-30T00:11:15.072Z,20.57
2017-11-30T00:13:43.627Z,19.07
2017-11-30T00:16:11.972Z,21.73
2017-11-30T00:18:40.178Z,18.60
2017-11-30T00:21:08.545Z,28.40
2017-11-30T00:23:37.894Z,22.77
2017-11-30T00:26:05.961Z,21.40
2017-11-30T00:28:33.811Z,23.20
2017-11-30T00:31:02.289Z,22.00
2017-11-30T00:33:30.469Z,23.23
2017-11-30T00:35:59.410Z,19.00
2017-11-30T00:38:28.585Z,22.00
2017-11-30T00:40:56.610Z,22.30
2017-11-30T00:43:33.219Z,25.50
2017-11-30T00:46:00.911Z,25.67
2017-11-30T00:48:29.711Z,23.27
2017-11-30T00:50:58.067Z,24.53
2017-11-30T00:53:27.208Z,24.63
2017-11-30T00:55:55.574Z,19.70
2017-11-30T00:58:23.930Z,25.90
2017-11-30T01:00:53.060Z,23.47
2017-11-30T01:03:21.426Z,22.07
2017-11-30T01:05:49.989Z,26.17
2017-11-30T01:08:19.102Z,20.60
2017-11-30T01:10:47.493Z,24.40
2017-11-30T01:13:15.843Z,24.10
2017-11-30T01:15:44.194Z,24.37
2017-11-30T01:18:12.558Z,24.03
2017-11-30T01:20:40.983Z,21.70
2017-11-30T01:23:09.362Z,21.93
2017-11-30T01:25:37.714Z,24.77
2017-11-30T01:28:06.855Z,21.23
2017-11-30T01:30:35.205Z,24.70
2017-11-30T01:33:04.340Z,24.20
2017-11-30T01:35:32.976Z,21.60
2017-11-30T01:38:02.112Z,24.10
2017-11-30T01:40:30.672Z,23.80
2017-11-30T01:42:59.041Z,21.13
2017-11-30T01:45:27.443Z,20.03
2017-11-30T01:47:56.740Z,24.20
2017-11-30T01:50:25.092Z,20.00
2017-11-30T01:52:54.292Z,23.13
2017-11-30T01:55:23.422Z,24.50
2017-11-30T01:57:51.783Z,18.77
2017-11-30T02:00:19.467Z,23.30
2017-11-30T02:02:48.607Z,22.03
2017-11-30T02:05:17.745Z,19.23
2017-11-30T02:07:46.097Z,27.33
2017-11-30T02:10:14.688Z,21.33
2017-11-30T02:12:43.043Z,17.53
2017-11-30T02:15:12.183Z,23.13
2017-11-30T02:17:40.549Z,21.07
2017-11-30T02:20:08.402Z,23.77
2017-11-30T02:22:36.136Z,26.70
2017-11-30T02:25:04.162Z,21.53
2017-11-30T02:27:31.852Z,27.60
2017-11-30T02:29:59.529Z,25.03
2017-11-30T02:32:27.886Z,28.87
2017-11-30T02:34:56.250Z,31.83
2017-11-30T02:37:23.783Z,27.57
2017-11-30T02:39:51.954Z,24.27
2017-11-30T02:42:19.992Z,26.17
2017-11-30T02:44:48.807Z,34.17
2017-11-30T02:47:16.507Z,29.00
2017-11-30T02:49:44.213Z,31.90
2017-11-30T02:52:12.687Z,26.80
2017-11-30T02:54:40.406Z,35.27
2017-11-30T02:57:08.680Z,40.67
2017-11-30T02:59:36.715Z,32.00
2017-11-30T03:02:05.852Z,28.60
2017-11-30T03:04:33.884Z,26.87
2017-11-30T03:07:01.591Z,33.27
2017-11-30T03:09:29.632Z,31.17
2017-11-30T03:11:57.684Z,30.03
2017-11-30T03:14:26.039Z,24.93
2017-11-30T03:16:54.844Z,25.23
2017-11-30T03:19:23.987Z,37.00
2017-11-30T03:21:52.356Z,32.17
2017-11-30T03:24:20.867Z,20.40
2017-11-30T03:26:49.239Z,19.87
2017-11-30T03:29:17.602Z,20.60
2017-11-30T03:31:45.992Z,19.57
2017-11-30T03:34:14.157Z,17.90
2017-11-30T03:36:42.527Z,17.07
2017-11-30T03:39:10.876Z,15.17
2017-11-30T03:41:39.235Z,20.30
2017-11-30T03:44:08.030Z,19.07
2017-11-30T03:46:36.832Z,18.63
2017-11-30T03:49:04.855Z,19.10
2017-11-30T03:51:33.217Z,26.30
2017-11-30T03:54:01.775Z,21.83
2017-11-30T03:56:30.131Z,26.53
2017-11-30T03:58:58.504Z,22.03
2017-11-30T04:01:27.652Z,27.10
2017-11-30T04:03:56.021Z,22.47
2017-11-30T04:06:24.421Z,20.57
2017-11-30T04:08:52.786Z,23.30
2017-11-30T04:11:21.155Z,23.83
2017-11-30T04:13:49.511Z,23.97
2017-11-30T04:16:17.703Z,27.30
2017-11-30T04:18:46.112Z,25.00
2017-11-30T04:21:15.353Z,24.70
2017-11-30T04:23:43.706Z,25.40
2017-11-30T04:26:12.830Z,28.77
2017-11-30T04:28:41.200Z,23.90
2017-11-30T04:31:09.556Z,29.67
2017-11-30T04:33:38.694Z,26.30
2017-11-30T04:36:07.050Z,29.70
2017-11-30T04:38:35.415Z,21.40
2017-11-30T04:41:04.345Z,26.90
2017-11-30T04:43:32.699Z,28.53
2017-11-30T04:46:01.073Z,33.23
2017-11-30T04:48:29.428Z,25.83
2017-11-30T04:50:58.570Z,20.73
2017-11-30T04:53:26.973Z,19.57
2017-11-30T04:55:55.343Z,29.90
2017-11-30T04:58:23.707Z,22.77
2017-11-30T05:00:51.463Z,26.67
2017-11-30T05:03:19.834Z,28.13
2017-11-30T05:05:47.550Z,26.10
2017-11-30T05:08:16.714Z,22.40
2017-11-30T05:10:45.258Z,28.30
2017-11-30T05:13:13.672Z,26.87
2017-11-30T05:15:41.695Z,20.67
2017-11-30T05:18:10.818Z,28.57
2017-11-30T05:20:39.247Z,30.63
2017-11-30T05:23:07.593Z,24.73
2017-11-30T05:25:36.011Z,23.17
2017-11-30T05:28:04.392Z,20.40
2017-11-30T05:30:33.304Z,28.33
2017-11-30T05:33:01.683Z,20.80
2017-11-30T05:35:30.087Z,28.30
2017-11-30T05:37:58.449Z,26.70
2017-11-30T05:40:26.845Z,26.30
2017-11-30T05:42:55.206Z,30.27
2017-11-30T05:45:23.578Z,29.03
2017-11-30T05:47:51.934Z,28.53
2017-11-30T05:50:21.073Z,27.93
2017-11-30T05:52:49.451Z,23.60
2017-11-30T05:55:17.817Z,29.43
2017-11-30T05:57:47.153Z,30.87
2017-11-30T06:00:15.533Z,22.53
2017-11-30T06:02:43.931Z,26.03
2017-11-30T06:05:12.328Z,18.73
2017-11-30T06:07:41.443Z,23.40
2017-11-30T06:10:09.822Z,23.90
2017-11-30T06:12:38.174Z,20.23
2017-11-30T06:15:06.563Z,27.80
2017-11-30T06:17:35.699Z,23.40
2017-11-30T06:20:03.757Z,24.47
2017-11-30T06:22:32.139Z,18.83
2017-11-30T06:25:00.321Z,19.90
2017-11-30T06:27:28.687Z,19.20
2017-11-30T06:29:57.071Z,25.17
2017-11-30T06:32:25.431Z,23.73
2017-11-30T06:34:53.825Z,22.30
2017-11-30T06:37:22.178Z,18.87
2017-11-30T06:39:51.332Z,20.87
2017-11-30T06:42:20.300Z,22.43
2017-11-30T06:44:48.877Z,20.43
2017-11-30T06:47:17.264Z,22.23
2017-11-30T06:49:45.660Z,18.53
2017-11-30T06:52:14.051Z,19.03
2017-11-30T06:54:42.451Z,23.60
2017-11-30T06:57:10.807Z,24.80
2017-11-30T06:59:39.176Z,20.73
2017-11-30T07:02:07.535Z,21.10
2017-11-30T07:04:35.906Z,24.13
2017-11-30T07:07:04.271Z,25.37
2017-11-30T07:09:32.791Z,25.10
2017-11-30T07:12:01.246Z,25.93
2017-11-30T07:14:29.603Z,23.30
2017-11-30T07:16:57.984Z,24.60
2017-11-30T07:19:26.497Z,26.93
2017-11-30T07:21:54.983Z,22.43
2017-11-30T07:24:23.366Z,22.87
2017-11-30T07:26:51.745Z,21.03
2017-11-30T07:29:20.112Z,25.80
2017-11-30T07:31:48.551Z,20.87
2017-11-30T07:34:17.681Z,25.27
2017-11-30T07:36:46.070Z,19.50
2017-11-30T07:39:14.415Z,24.77
2017-11-30T07:41:42.797Z,24.70
2017-11-30T07:44:11.164Z,25.73
2017-11-30T07:46:39.557Z,23.27
2017-11-30T07:49:07.937Z,24.60
2017-11-30T07:51:36.291Z,17.33
2017-11-30T07:54:05.409Z,26.60
2017-11-30T07:56:33.800Z,25.87
2017-11-30T07:59:02.161Z,24.97
2017-11-30T08:01:30.557Z,26.03
2017-11-30T08:03:58.944Z,17.20
2017-11-30T08:06:27.303Z,16.97
2017-11-30T08:08:55.672Z,14.80
2017-11-30T08:11:24.620Z,13.73
2017-11-30T08:13:52.986Z,10.73
2017-11-30T08:16:21.387Z,12.83
2017-11-30T08:18:49.748Z,10.93
2017-11-30T08:21:18.119Z,10.23
2017-11-30T08:23:46.489Z,12.03
2017-11-30T08:26:14.936Z,12.67
2017-11-30T08:28:43.303Z,11.83
2017-11-30T08:31:11.659Z,10.10
2017-11-30T08:33:41.006Z,10.50
2017-11-30T08:36:09.558Z,7.63
2017-11-30T08:38:38.542Z,9.63
2017-11-30T08:41:07.660Z,10.57
2017-11-30T08:43:36.028Z,8.77
2017-11-30T08:46:04.416Z,11.17
2017-11-30T08:48:33.275Z,11.73
2017-11-30T08:51:02.432Z,15.63
2017-11-30T08:53:30.471Z,10.37
2017-11-30T08:55:58.164Z,10.50
2017-11-30T08:58:26.530Z,10.97
2017-11-30T09:00:54.893Z,13.97
2017-11-30T09:03:23.277Z,12.63
2017-11-30T09:05:51.302Z,12.03
2017-11-30T09:08:19.676Z,11.33
2017-11-30T09:10:48.047Z,12.40
2017-11-30T09:13:16.400Z,11.27
2017-11-30T09:15:44.789Z,15.00
2017-11-30T09:18:13.136Z,12.83
2017-11-30T09:20:41.682Z,6.33
2017-11-30T09:23:10.826Z,8.20
2017-11-30T09:25:39.172Z,13.80
2017-11-30T09:28:07.547Z,10.80
2017-11-30T09:30:35.907Z,9.93
2017-11-30T09:33:04.438Z,10.10
2017-11-30T09:35:32.950Z,8.43
2017-11-30T09:38:01.302Z,9.80
2017-11-30T09:40:29.656Z,7.03
2017-11-30T09:42:58.027Z,9.57
2017-11-30T09:45:27.364Z,9.23
2017-11-30T09:47:56.479Z,7.70
2017-11-30T09:50:24.829Z,5.03
2017-11-30T09:52:53.193Z,6.70
2017-11-30T09:55:21.556Z,5.67
2017-11-30T09:57:49.722Z,6.97
2017-11-30T10:00:18.101Z,8.60
2017-11-30T10:02:46.459Z,4.90
2017-11-30T10:05:15.702Z,6.23
2017-11-30T10:07:44.063Z,6.77
2017-11-30T10:10:12.443Z,7.00
2017-11-30T10:12:40.800Z,6.50
2017-11-30T10:15:09.935Z,9.07
2017-11-30T10:17:38.288Z,8.20
2017-11-30T10:20:06.652Z,8.37
2017-11-30T10:22:35.802Z,8.07
2017-11-30T10:25:04.181Z,7.27
2017-11-30T10:27:32.347Z,9.50
2017-11-30T10:30:00.695Z,7.70
2017-11-30T10:32:29.080Z,9.93
2017-11-30T10:34:57.238Z,7.87
2017-11-30T10:37:25.414Z,8.37
2017-11-30T10:39:53.583Z,3.40
2017-11-30T10:42:22.723Z,3.83
2017-11-30T10:44:50.885Z,3.43
2017-11-30T10:47:19.302Z,2.60
2017-11-30T10:49:47.660Z,3.27
2017-11-30T10:52:16.015Z,2.63
2017-11-30T10:54:44.380Z,3.37
2017-11-30T10:57:12.732Z,4.17
2017-11-30T10:59:41.895Z,7.43
2017-11-30T11:02:10.255Z,4.57
2017-11-30T11:04:38.616Z,3.43
2017-11-30T11:07:06.965Z,8.07
2017-11-30T11:09:36.102Z,3.57
2017-11-30T11:12:04.449Z,3.30
2017-11-30T11:14:32.804Z,4.30
2017-11-30T11:17:01.946Z,4.87
2017-11-30T11:19:30.312Z,2.50
2017-11-30T11:21:58.683Z,3.90
2017-11-30T11:24:27.037Z,3.67
2017-11-30T11:26:56.200Z,4.33
2017-11-30T11:29:24.729Z,2.50
2017-11-30T11:31:53.091Z,5.83
2017-11-30T11:34:22.411Z,3.97
2017-11-30T11:36:50.769Z,4.80
2017-11-30T11:39:19.903Z,6.23
2017-11-30T11:41:48.256Z,3.70
2017-11-30T11:44:16.621Z,3.10
2017-11-30T11:46:45.737Z,2.93
2017-11-30T11:49:14.103Z,3.40
2017-11-30T11:51:43.214Z,3.10
2017-11-30T11:54:11.395Z,2.30
2017-11-30T11:56:39.745Z,2.43
2017-11-30T11:59:08.858Z,3.13
2017-11-30T12:01:37.221Z,1.60
2017-11-30T12:04:06.340Z,2.00
2017-11-30T12:06:34.695Z,2.73
2017-11-30T12:09:03.499Z,2.27
2017-11-30T12:11:31.854Z,3.40
2017-11-30T12:14:00.966Z,3.20
2017-11-30T12:16:29.349Z,3.03
2017-11-30T12:18:57.703Z,1.70
2017-11-30T12:21:26.819Z,3.77
2017-11-30T12:23:55.053Z,6.03
2017-11-30T12:26:24.232Z,5.47
2017-11-30T12:28:52.599Z,3.97
2017-11-30T12:31:20.769Z,2.97
2017-11-30T12:33:49.120Z,5.20
2017-11-30T12:36:17.660Z,4.10
2017-11-30T12:38:46.102Z,4.73
2017-11-30T12:41:14.446Z,5.40
2017-11-30T12:43:43.552Z,4.33
2017-11-30T12:46:11.999Z,3.80
2017-11-30T12:48:41.147Z,7.67
2017-11-30T12:51:09.487Z,8.33
2017-11-30T12:53:38.630Z,6.93
2017-11-30T12:56:07.742Z,6.60
2017-11-30T12:58:35.701Z,10.83
2017-11-30T13:01:03.767Z,6.03
2017-11-30T13:03:32.119Z,5.53
2017-11-30T13:06:00.267Z,5.50
2017-11-30T13:08:29.402Z,6.03
2017-11-30T13:10:57.240Z,4.87
2017-11-30T13:13:26.891Z,4.77
2017-11-30T13:15:55.088Z,5.97
2017-11-30T13:18:23.264Z,4.30
2017-11-30T13:20:51.620Z,4.50
2017-11-30T13:23:20.047Z,4.60
2017-11-30T13:25:48.487Z,2.73
2017-11-30T13:28:16.834Z,3.10
2017-11-30T13:30:45.240Z,4.93
2017-11-30T13:33:13.598Z,3.93
2017-11-30T13:35:41.766Z,11.83
2017-11-30T13:38:10.129Z,2.33
2017-11-30T13:40:38.523Z,6.20
2017-11-30T13:43:06.921Z,6.60
2017-11-30T13:45:35.133Z,9.37
2017-11-30T13:48:04.287Z,4.67
2017-11-30T13:50:32.692Z,6.00
2017-11-30T13:53:01.064Z,5.47
2017-11-30T13:55:29.505Z,4.47
2017-11-30T13:57:57.841Z,6.73
2017-11-30T14:00:27.300Z,5.87
2017-11-30T14:02:55.662Z,6.83
2017-11-30T14:05:24.007Z,6.50
2017-11-30T14:07:53.147Z,8.90
2017-11-30T14:10:22.285Z,8.43
2017-11-30T14:12:51.395Z,10.80
2017-11-30T14:15:20.548Z,8.43
2017-11-30T14:17:48.899Z,11.40
2017-11-30T14:20:17.266Z,6.43
2017-11-30T14:22:45.672Z,5.47
2017-11-30T14:25:14.027Z,5.70
2017-11-30T14:27:42.568Z,5.70
2017-11-30T14:30:11.053Z,2.97
2017-11-30T14:32:40.170Z,4.17
2017-11-30T14:35:09.274Z,6.40
2017-11-30T14:37:37.641Z,6.70
2017-11-30T14:40:06.778Z,2.97
2017-11-30T14:42:35.116Z,4.30
2017-11-30T14:45:03.592Z,8.20
2017-11-30T14:47:32.706Z,4.00
2017-11-30T14:50:01.124Z,9.30
2017-11-30T14:52:29.498Z,10.43
2017-11-30T14:54:57.861Z,8.10
2017-11-30T14:57:26.200Z,6.20
2017-11-30T14:59:54.576Z,7.77
2017-11-30T15:02:22.945Z,11.77
2017-11-30T15:04:52.058Z,7.00
2017-11-30T15:07:20.425Z,6.57
2017-11-30T15:09:49.540Z,6.83
2017-11-30T15:12:17.890Z,8.90
2017-11-30T15:14:47.048Z,6.40
2017-11-30T15:17:15.445Z,6.73
2017-11-30T15:19:43.960Z,8.17
2017-11-30T15:22:13.087Z,7.87
2017-11-30T15:24:41.433Z,5.63
2017-11-30T15:27:10.578Z,8.53
2017-11-30T15:29:38.955Z,12.80
2017-11-30T15:32:07.308Z,7.23
2017-11-30T15:34:37.193Z,8.07
2017-11-30T15:37:06.341Z,10.20
2017-11-30T15:39:36.147Z,12.17
2017-11-30T15:42:04.488Z,11.70
2017-11-30T15:44:32.858Z,8.37
2017-11-30T15:47:01.991Z,10.97
2017-11-30T15:49:30.602Z,7.97
2017-11-30T15:51:58.975Z,5.90
2017-11-30T15:54:27.317Z,8.37
2017-11-30T15:56:55.664Z,8.97
2017-11-30T15:59:24.813Z,9.67
2017-11-30T16:01:53.209Z,7.90
2017-11-30T16:04:21.621Z,9.67
2017-11-30T16:06:50.800Z,8.47
2017-11-30T16:09:19.926Z,3.70
2017-11-30T16:11:48.285Z,11.87
2017-11-30T16:14:17.433Z,16.73
2017-11-30T16:16:45.782Z,10.53
2017-11-30T16:19:14.144Z,6.10
2017-11-30T16:21:43.353Z,8.40
2017-11-30T16:24:12.471Z,14.97
2017-11-30T16:26:40.492Z,12.43
2017-11-30T16:29:09.662Z,14.27
2017-11-30T16:31:38.015Z,8.70
2017-11-30T16:34:06.401Z,13.13
2017-11-30T16:36:34.807Z,7.97
2017-11-30T16:39:03.185Z,8.67
2017-11-30T16:41:31.397Z,10.63
2017-11-30T16:43:59.614Z,13.00
2017-11-30T16:46:27.647Z,9.50
2017-11-30T16:48:55.998Z,8.97
2017-11-30T16:51:24.417Z,10.80
2017-11-30T16:53:52.795Z,7.40
2017-11-30T16:56:23.093Z,7.07
2017-11-30T16:58:52.217Z,7.87
2017-11-30T17:01:20.553Z,9.33
2017-11-30T17:03:49.670Z,11.47
2017-11-30T17:06:18.101Z,10.67
2017-11-30T17:08:46.507Z,9.73
2017-11-30T17:11:14.546Z,7.33
2017-11-30T17:13:43.717Z,10.63
2017-11-30T17:16:12.069Z,8.17
2017-11-30T17:18:41.210Z,9.53
2017-11-30T17:21:09.640Z,9.73
2017-11-30T17:23:38.751Z,15.40
2017-11-30T17:26:07.135Z,10.33
2017-11-30T17:28:35.725Z,12.07
2017-11-30T17:31:04.103Z,14.27
2017-11-30T17:33:32.449Z,8.77
2017-11-30T17:36:00.910Z,9.10
2017-11-30T17:38:28.594Z,6.50
2017-11-30T17:40:56.959Z,8.80
2017-11-30T17:43:26.130Z,7.80
2017-11-30T17:45:54.497Z,5.67
2017-11-30T17:48:22.912Z,7.40
2017-11-30T17:50:52.069Z,6.50
2017-11-30T17:53:20.418Z,6.43
2017-11-30T17:55:48.769Z,6.23
2017-11-30T17:58:17.901Z,6.83
2017-11-30T18:00:46.322Z,8.47
2017-11-30T18:03:14.675Z,5.77
2017-11-30T18:05:43.062Z,7.30
2017-11-30T18:08:11.435Z,8.77
2017-11-30T18:10:39.801Z,7.80
2017-11-30T18:13:08.173Z,5.63
2017-11-30T18:15:36.528Z,7.07
2017-11-30T18:18:04.885Z,8.07
2017-11-30T18:20:33.441Z,6.87
2017-11-30T18:23:01.793Z,5.23
2017-11-30T18:25:30.142Z,8.07
2017-11-30T18:27:58.525Z,8.03
2017-11-30T18:30:27.817Z,8.40
2017-11-30T18:32:56.178Z,8.83
2017-11-30T18:35:25.398Z,9.50
2017-11-30T18:37:53.610Z,7.13
2017-11-30T18:40:21.969Z,10.07
2017-11-30T18:42:50.333Z,9.43
2017-11-30T18:45:18.682Z,9.90
2017-11-30T18:47:47.802Z,9.40
2017-11-30T18:50:16.152Z,8.70
2017-11-30T18:52:45.274Z,10.80
2017-11-30T18:55:13.673Z,19.77
2017-11-30T18:57:42.083Z,12.50
2017-11-30T19:00:10.442Z,9.90
2017-11-30T19:02:38.820Z,12.70
2017-11-30T19:05:07.234Z,11.90
2017-11-30T19:07:35.693Z,11.43
2017-11-30T19:10:04.154Z,10.47
2017-11-30T19:12:32.609Z,12.10
2017-11-30T19:15:01.210Z,10.47
2017-11-30T19:17:29.637Z,11.20
2017-11-30T19:19:58.878Z,9.50
2017-11-30T19:22:28.265Z,9.80
2017-11-30T19:24:56.622Z,11.80
2017-11-30T19:27:25.782Z,11.10
2017-11-30T19:29:54.207Z,10.30
2017-11-30T19:32:23.317Z,13.63
2017-11-30T19:34:51.677Z,12.50
2017-11-30T19:37:20.142Z,14.07
2017-11-30T19:39:48.667Z,11.27
2017-11-30T19:42:17.116Z,11.20
2017-11-30T19:44:46.229Z,12.00
2017-11-30T19:47:14.685Z,10.23
2017-11-30T19:49:43.829Z,9.67
2017-11-30T19:52:12.269Z,12.10
2017-11-30T19:54:40.679Z,12.57
2017-11-30T19:57:09.179Z,14.40
2017-11-30T19:59:37.583Z,14.27
2017-11-30T20:02:05.992Z,13.77
2017-11-30T20:04:34.392Z,12.07
2017-11-30T20:07:02.629Z,12.53
2017-11-30T20:09:31.073Z,13.87
2017-11-30T20:11:59.402Z,13.03
2017-11-30T20:14:27.790Z,14.03
2017-11-30T20:16:56.213Z,12.20
2017-11-30T20:19:24.585Z,10.30
2017-11-30T20:21:52.974Z,12.57
2017-11-30T20:24:21.271Z,12.23
2017-11-30T20:26:50.560Z,9.43
2017-11-30T20:29:19.136Z,9.67
2017-11-30T20:31:47.496Z,11.60
2017-11-30T20:34:15.873Z,7.73
2017-11-30T20:36:45.208Z,10.60
2017-11-30T20:39:13.600Z,9.33
2017-11-30T20:41:42.107Z,10.03
2017-11-30T20:44:10.545Z,12.20
2017-11-30T20:46:39.750Z,9.83
2017-11-30T20:49:09.932Z,12.60
2017-11-30T20:51:38.374Z,13.00
2017-11-30T20:54:06.787Z,11.37
2017-11-30T20:56:35.188Z,13.57
2017-11-30T20:59:03.606Z,13.37
2017-11-30T21:01:32.799Z,14.60
2017-11-30T21:04:02.159Z,15.70
2017-11-30T21:06:30.717Z,14.87
2017-11-30T21:08:59.131Z,14.57
2017-11-30T21:11:27.554Z,16.67
2017-11-30T21:13:56.818Z,11.63
2017-11-30T21:16:25.202Z,17.27
2017-11-30T21:18:54.376Z,13.00
2017-11-30T21:21:22.878Z,14.50
2017-11-30T21:23:51.284Z,13.40
2017-11-30T21:26:19.661Z,18.00
2017-11-30T21:28:48.078Z,17.20
2017-11-30T21:31:16.474Z,14.67
2017-11-30T21:33:44.912Z,16.67
2017-11-30T21:36:13.272Z,14.00
2017-11-30T21:38:42.472Z,12.80
2017-11-30T21:41:10.876Z,14.17
2017-11-30T21:43:39.256Z,15.40
2017-11-30T21:46:07.600Z,14.40
2017-11-30T21:48:35.972Z,14.50
2017-11-30T21:51:05.101Z,14.33
2017-11-30T21:53:33.462Z,15.87
2017-11-30T21:56:01.856Z,13.23
2017-11-30T21:58:30.213Z,14.80
2017-11-30T22:00:58.610Z,15.27
2017-11-30T22:03:26.995Z,12.97
2017-11-30T22:05:55.347Z,14.63
2017-11-30T22:08:23.739Z,16.03
2017-11-30T22:10:51.923Z,14.07
2017-11-30T22:13:20.270Z,14.10
2017-11-30T22:15:49.396Z,11.60
2017-11-30T22:18:18.643Z,14.43
2017-11-30T22:20:47.185Z,13.27
2017-11-30T22:23:15.610Z,14.47
2017-11-30T22:25:43.993Z,14.67
2017-11-30T22:28:12.397Z,13.70
2017-11-30T22:30:40.753Z,14.27
2017-11-30T22:33:09.596Z,14.27
2017-11-30T22:35:37.966Z,16.20
2017-11-30T22:38:06.312Z,16.53
2017-11-30T22:40:34.704Z,15.20
2017-11-30T22:43:02.735Z,16.77
2017-11-30T22:45:31.275Z,16.10
2017-11-30T22:47:59.659Z,18.73
2017-11-30T22:50:28.037Z,17.53
2017-11-30T22:52:56.120Z,16.13
2017-11-30T22:55:24.498Z,15.73
2017-11-30T22:57:52.894Z,15.70
2017-11-30T23:00:20.573Z,17.93
2017-11-30T23:02:49.729Z,19.00
2017-11-30T23:05:18.849Z,18.70
2017-11-30T23:07:47.198Z,17.93
2017-11-30T23:10:15.565Z,15.43
2017-11-30T23:12:43.968Z,18.67
2017-11-30T23:15:12.325Z,16.40
2017-11-30T23:17:40.721Z,16.73
2017-11-30T23:20:09.060Z,16.47
2017-11-30T23:22:37.457Z,14.97
2017-11-30T23:25:05.534Z,16.70
2017-11-30T23:27:33.881Z,15.37
2017-11-30T23:30:02.270Z,14.00
2017-11-30T23:32:30.661Z,19.47
2017-11-30T23:34:58.711Z,17.73
2017-11-30T23:37:27.138Z,18.27
2017-11-30T23:39:55.614Z,14.50
2017-11-30T23:42:23.973Z,13.60
2017-11-30T23:44:52.518Z,18.77
2017-11-30T23:47:20.888Z,12.13
2017-11-30T23:49:49.307Z,14.50
2017-11-30T23:52:17.648Z,18.67
2017-11-30T23:54:46.775Z,12.50
2017-11-30T23:57:15.136Z,11.30
2017-11-30T23:59:43.494Z,14.83
